Terminal Aerodrome Forecast
Issued by NWS

Home | Current Version | Previous Version | Text Only | Print | Product List | Glossary On
Versions: 1 2 3 4 5 6 7 8 9 10 11 12 13 14
000
FTUS43 KTOP 202300
TAFMHK
TAF
KMHK 202320Z 2100/2124 19014G19KT P6SM SCT300
     FM210100 19012KT P6SM SCT300
     FM211400 21015G23KT P6SM FEW060 SCT300=

USA.gov is the U.S. government's official web portal to all federal, state and local government web resources and services.